createdAt,value
2023-04-24T00:00:15.799Z,0.90
2023-04-24T00:02:47.800Z,1.00
2023-04-24T00:05:18.277Z,1.00
2023-04-24T00:07:47.050Z,1.00
2023-04-24T00:10:14.857Z,1.10
2023-04-24T00:12:42.580Z,1.10
2023-04-24T00:15:13.240Z,0.80
2023-04-24T00:17:41.130Z,0.90
2023-04-24T00:20:11.307Z,1.10
2023-04-24T00:22:39.138Z,0.90
2023-04-24T00:25:07.918Z,1.10
2023-04-24T00:27:37.713Z,1.00
2023-04-24T00:30:07.143Z,0.80
2023-04-24T00:32:36.240Z,0.87
2023-04-24T00:35:04.177Z,0.80
2023-04-24T00:37:31.852Z,0.80
2023-04-24T00:39:59.633Z,0.80
2023-04-24T00:42:27.472Z,1.00
2023-04-24T00:44:55.454Z,0.90
2023-04-24T00:47:24.048Z,0.87
2023-04-24T00:49:53.204Z,1.10
2023-04-24T00:52:21.641Z,0.90
2023-04-24T00:54:49.528Z,0.93
2023-04-24T00:57:17.454Z,0.90
2023-04-24T00:59:45.922Z,0.80
2023-04-24T01:02:14.873Z,1.00
2023-04-24T01:04:42.795Z,0.70
2023-04-24T01:07:12.476Z,0.73
2023-04-24T01:09:42.574Z,0.70
2023-04-24T01:12:10.625Z,1.00
2023-04-24T01:14:38.611Z,1.00
2023-04-24T01:17:06.766Z,0.73
2023-04-24T01:19:34.545Z,0.70
2023-04-24T01:22:04.595Z,0.80
2023-04-24T01:24:33.868Z,1.00
2023-04-24T01:27:02.206Z,1.03
2023-04-24T01:29:30.181Z,0.90
2023-04-24T01:31:59.481Z,0.90
2023-04-24T01:34:27.587Z,0.93
2023-04-24T01:36:55.689Z,0.80
2023-04-24T01:39:24.293Z,0.97
2023-04-24T01:41:54.637Z,1.00
2023-04-24T01:44:22.770Z,1.00
2023-04-24T01:46:50.634Z,1.03
2023-04-24T01:49:18.497Z,1.20
2023-04-24T01:51:46.430Z,0.67
2023-04-24T01:54:14.365Z,0.80
2023-04-24T01:56:44.235Z,1.37
2023-04-24T01:59:13.783Z,0.77
2023-04-24T02:01:41.572Z,0.90
2023-04-24T02:04:10.897Z,1.00
2023-04-24T02:06:38.842Z,0.90
2023-04-24T02:09:06.525Z,1.00
2023-04-24T02:11:34.257Z,0.70
2023-04-24T02:14:02.083Z,0.90
2023-04-24T02:16:33.910Z,1.00
2023-04-24T02:19:01.649Z,0.93
2023-04-24T02:21:29.569Z,0.88
2023-04-24T02:23:57.316Z,0.80
2023-04-24T02:26:25.261Z,0.83
2023-04-24T02:28:53.085Z,0.80
2023-04-24T02:31:20.858Z,1.03
2023-04-24T02:33:50.187Z,0.70
2023-04-24T02:36:17.947Z,1.00
2023-04-24T02:38:45.642Z,0.90
2023-04-24T02:41:13.235Z,1.00
2023-04-24T02:43:40.910Z,0.90
2023-04-24T02:46:08.623Z,0.70
2023-04-24T02:48:36.375Z,0.93
2023-04-24T02:51:05.685Z,1.00
2023-04-24T02:53:33.345Z,0.90
2023-04-24T02:56:02.095Z,1.10
2023-04-24T02:58:30.677Z,0.93
2023-04-24T03:00:58.400Z,0.90
2023-04-24T03:03:26.295Z,0.80
2023-04-24T03:05:54.291Z,1.07
2023-04-24T03:08:23.388Z,1.10
2023-04-24T03:10:51.147Z,0.90
2023-04-24T03:13:18.782Z,0.80
2023-04-24T03:15:47.835Z,1.10
2023-04-24T03:18:15.832Z,0.90
2023-04-24T03:20:43.676Z,0.80
2023-04-24T03:23:11.365Z,0.93
2023-04-24T03:25:40.439Z,0.98
2023-04-24T03:28:08.203Z,1.10
2023-04-24T03:30:36.055Z,0.80
2023-04-24T03:33:03.855Z,1.10
2023-04-24T03:35:32.297Z,0.90
2023-04-24T03:38:00.008Z,0.95
2023-04-24T03:40:29.478Z,0.85
2023-04-24T03:42:58.513Z,1.00
2023-04-24T03:45:26.242Z,1.03
2023-04-24T03:47:53.991Z,0.95
2023-04-24T03:50:21.860Z,0.93
2023-04-24T03:52:49.534Z,1.42
2023-04-24T03:55:17.235Z,0.82
2023-04-24T03:57:44.983Z,0.85
2023-04-24T04:00:15.232Z,1.00
2023-04-24T04:02:43.030Z,0.80
2023-04-24T04:05:11.140Z,1.10
2023-04-24T04:07:39.089Z,0.90
2023-04-24T04:10:08.095Z,0.90
2023-04-24T04:12:35.865Z,0.90
2023-04-24T04:15:03.918Z,0.80
2023-04-24T04:17:33.017Z,1.00
2023-04-24T04:20:01.311Z,1.20
2023-04-24T04:22:30.083Z,0.70
2023-04-24T04:24:58.469Z,0.95
2023-04-24T04:27:26.154Z,0.90
2023-04-24T04:29:53.894Z,0.95
2023-04-24T04:32:21.635Z,1.48
2023-04-24T04:34:50.731Z,1.40
2023-04-24T04:37:18.369Z,1.20
2023-04-24T04:39:46.044Z,1.08
2023-04-24T04:42:14.523Z,1.08
2023-04-24T04:44:42.449Z,1.02
2023-04-24T04:47:11.788Z,1.10
2023-04-24T04:49:39.886Z,1.10
2023-04-24T04:52:09.181Z,1.10
2023-04-24T04:54:36.930Z,1.20
2023-04-24T04:57:04.785Z,1.10
2023-04-24T04:59:32.506Z,1.25
2023-04-24T05:02:00.942Z,1.35
2023-04-24T05:04:28.890Z,1.25
2023-04-24T05:06:57.512Z,1.40
2023-04-24T05:09:28.343Z,1.10
2023-04-24T05:11:56.337Z,1.23
2023-04-24T05:14:24.299Z,1.00
2023-04-24T05:16:52.222Z,1.30
2023-04-24T05:19:20.087Z,1.23
2023-04-24T05:21:47.861Z,1.20
2023-04-24T05:24:15.831Z,3.30
2023-04-24T05:26:45.093Z,1.48
2023-04-24T05:29:12.911Z,3.35
2023-04-24T05:31:40.609Z,1.90
2023-04-24T05:34:08.441Z,2.55
2023-04-24T05:36:36.407Z,2.97
2023-04-24T05:39:08.087Z,2.70
2023-04-24T05:41:36.466Z,1.70
2023-04-24T05:44:05.481Z,1.88
2023-04-24T05:46:33.145Z,1.40
2023-04-24T05:49:00.961Z,1.45
2023-04-24T05:51:28.625Z,2.60
2023-04-24T05:53:56.521Z,1.30
2023-04-24T05:56:24.408Z,1.83
2023-04-24T05:58:52.346Z,1.85
2023-04-24T06:01:21.698Z,1.23
2023-04-24T06:03:49.620Z,1.55
2023-04-24T06:06:17.713Z,1.55
2023-04-24T06:08:46.430Z,1.40
2023-04-24T06:11:14.180Z,1.30
2023-04-24T06:13:42.030Z,1.17
2023-04-24T06:16:10.155Z,1.50
2023-04-24T06:18:39.237Z,1.40
2023-04-24T06:21:07.342Z,1.40
2023-04-24T06:23:35.078Z,1.35
2023-04-24T06:26:02.977Z,1.52
2023-04-24T06:28:30.706Z,1.97
2023-04-24T06:30:58.454Z,1.40
2023-04-24T06:33:26.167Z,1.70
2023-04-24T06:35:55.481Z,2.13
2023-04-24T06:38:23.292Z,2.03
2023-04-24T06:40:51.019Z,1.65
2023-04-24T06:43:18.757Z,1.90
2023-04-24T06:45:48.009Z,1.65
2023-04-24T06:48:16.260Z,1.58
2023-04-24T06:50:43.957Z,1.50
2023-04-24T06:53:13.850Z,2.73
2023-04-24T06:55:41.934Z,2.00
2023-04-24T06:58:10.719Z,1.90
2023-04-24T07:00:38.627Z,2.90
2023-04-24T07:03:07.372Z,3.43
2023-04-24T07:05:36.169Z,3.37
2023-04-24T07:08:05.003Z,2.40
2023-04-24T07:10:36.637Z,2.23
2023-04-24T07:13:05.649Z,1.97
2023-04-24T07:15:33.636Z,1.73
2023-04-24T07:18:04.054Z,1.47
2023-04-24T07:20:34.380Z,1.83
2023-04-24T07:23:02.261Z,1.67
2023-04-24T07:25:30.005Z,1.87
2023-04-24T07:27:59.158Z,1.90
2023-04-24T07:30:27.100Z,2.03
2023-04-24T07:32:54.945Z,1.33
2023-04-24T07:35:22.665Z,1.37
2023-04-24T07:37:50.416Z,1.67
2023-04-24T07:40:18.342Z,1.53
2023-04-24T07:42:46.112Z,1.20
2023-04-24T07:45:15.292Z,1.20
2023-04-24T07:47:44.857Z,2.20
2023-04-24T07:50:13.135Z,1.30
2023-04-24T07:52:41.176Z,1.20
2023-04-24T07:55:09.483Z,1.00
2023-04-24T07:57:37.357Z,1.37
2023-04-24T08:00:06.682Z,1.77
2023-04-24T08:02:36.054Z,2.00
2023-04-24T08:05:04.612Z,1.50
2023-04-24T08:07:32.499Z,1.40
2023-04-24T08:10:00.353Z,0.97
2023-04-24T08:12:28.231Z,1.40
2023-04-24T08:14:55.978Z,1.30
2023-04-24T08:17:23.865Z,1.67
2023-04-24T08:19:54.244Z,1.20
2023-04-24T08:22:22.166Z,1.40
2023-04-24T08:24:50.303Z,1.53
2023-04-24T08:27:18.140Z,1.40
2023-04-24T08:29:46.080Z,1.50
2023-04-24T08:32:13.822Z,1.63
2023-04-24T08:34:41.656Z,1.20
2023-04-24T08:37:10.886Z,1.17
2023-04-24T08:39:38.960Z,1.50
2023-04-24T08:42:09.308Z,1.47
2023-04-24T08:44:38.278Z,1.37
2023-04-24T08:47:07.261Z,1.30
2023-04-24T08:49:37.983Z,1.70
2023-04-24T08:52:06.730Z,2.70
2023-04-24T08:54:36.537Z,1.07
2023-04-24T08:57:05.643Z,1.83
2023-04-24T08:59:33.639Z,1.37
2023-04-24T09:02:02.159Z,1.30
2023-04-24T09:04:31.470Z,1.33
2023-04-24T09:07:00.476Z,1.70
2023-04-24T09:09:28.363Z,1.60
2023-04-24T09:11:58.291Z,1.57
2023-04-24T09:14:26.332Z,1.50
2023-04-24T09:16:54.075Z,1.70
2023-04-24T09:19:23.456Z,1.57
2023-04-24T09:21:51.238Z,1.70
2023-04-24T09:24:23.428Z,1.60
2023-04-24T09:26:59.980Z,1.50
2023-04-24T09:29:29.583Z,1.67
2023-04-24T09:31:57.726Z,1.70
2023-04-24T09:34:26.612Z,2.30
2023-04-24T09:36:55.339Z,1.90
2023-04-24T09:39:23.144Z,1.90
2023-04-24T09:41:56.661Z,1.50
2023-04-24T09:44:26.283Z,1.70
2023-04-24T09:46:56.728Z,1.57
2023-04-24T09:49:26.129Z,1.60
2023-04-24T09:51:54.332Z,1.60
2023-04-24T09:54:23.471Z,1.10
2023-04-24T09:56:52.762Z,1.50
2023-04-24T09:59:21.478Z,1.60
2023-04-24T10:01:50.452Z,1.40
2023-04-24T10:04:21.269Z,1.30
2023-04-24T10:06:50.801Z,2.10
2023-04-24T10:09:19.904Z,1.30
2023-04-24T10:11:49.862Z,1.70
2023-04-24T10:14:19.235Z,1.30
2023-04-24T10:16:48.088Z,1.73
2023-04-24T10:19:16.648Z,1.00
2023-04-24T10:21:47.674Z,1.17
2023-04-24T10:24:16.626Z,1.20
2023-04-24T10:26:45.085Z,1.30
2023-04-24T10:29:13.985Z,1.40
2023-04-24T10:31:42.613Z,1.10
2023-04-24T10:34:11.965Z,1.50
2023-04-24T10:36:48.359Z,1.30
2023-04-24T10:39:17.835Z,1.13
2023-04-24T10:41:45.839Z,1.37
2023-04-24T10:44:16.141Z,1.20
2023-04-24T10:46:47.642Z,1.10
2023-04-24T10:49:15.673Z,1.50
2023-04-24T10:51:49.815Z,1.30
2023-04-24T10:54:28.279Z,0.93
2023-04-24T10:57:33.832Z,1.10
2023-04-24T11:00:20.884Z,1.67
2023-04-24T11:02:54.152Z,1.10
2023-04-24T11:05:23.019Z,1.00
2023-04-24T11:08:18.386Z,1.50
2023-04-24T11:10:48.123Z,1.20
2023-04-24T11:13:23.092Z,1.27
2023-04-24T11:16:14.682Z,1.33
2023-04-24T11:18:51.585Z,1.40
2023-04-24T11:21:20.345Z,1.40
2023-04-24T11:23:49.833Z,1.20
2023-04-24T11:26:21.246Z,1.30
2023-04-24T11:28:50.207Z,1.33
2023-04-24T11:31:37.719Z,1.30
2023-04-24T11:34:14.043Z,1.23
2023-04-24T11:36:42.109Z,1.50
2023-04-24T11:39:12.199Z,1.40
2023-04-24T11:41:40.171Z,1.20
2023-04-24T11:44:09.332Z,1.43
2023-04-24T11:46:39.102Z,1.00
2023-04-24T11:49:07.400Z,1.00
2023-04-24T11:51:44.571Z,1.10
2023-04-24T11:54:21.859Z,1.03
2023-04-24T11:56:50.070Z,1.23
2023-04-24T11:59:18.387Z,1.20
2023-04-24T12:02:04.499Z,1.70
2023-04-24T12:04:42.165Z,1.10
2023-04-24T12:07:10.901Z,1.30
2023-04-24T12:09:47.911Z,1.67
2023-04-24T12:12:17.416Z,1.50
2023-04-24T12:14:47.083Z,1.43
2023-04-24T12:17:14.799Z,1.40
2023-04-24T12:19:47.946Z,1.40
2023-04-24T12:22:18.895Z,1.20
2023-04-24T12:25:01.858Z,1.30
2023-04-24T12:27:33.100Z,1.30
2023-04-24T12:30:02.723Z,1.20
2023-04-24T12:32:30.927Z,1.20
2023-04-24T12:34:59.801Z,2.77
2023-04-24T12:37:28.810Z,6.60
2023-04-24T12:40:08.141Z,1.70
2023-04-24T12:42:37.368Z,2.20
2023-04-24T12:45:07.764Z,3.80
2023-04-24T12:47:37.296Z,1.60
2023-04-24T12:50:05.775Z,1.47
2023-04-24T12:52:33.702Z,1.33
2023-04-24T12:55:02.875Z,1.20
2023-04-24T12:57:33.020Z,3.23
2023-04-24T13:00:01.117Z,1.80
2023-04-24T13:02:31.454Z,0.83
2023-04-24T13:05:00.457Z,1.30
2023-04-24T13:07:29.447Z,1.23
2023-04-24T13:09:58.386Z,2.03
2023-04-24T13:12:26.795Z,1.23
2023-04-24T13:14:57.412Z,1.70
2023-04-24T13:17:25.139Z,1.60
2023-04-24T13:19:53.851Z,1.47
2023-04-24T13:22:22.411Z,1.47
2023-04-24T13:24:50.885Z,1.57
2023-04-24T13:27:19.138Z,1.30
2023-04-24T13:29:48.176Z,1.40
2023-04-24T13:32:17.640Z,1.27
2023-04-24T13:34:45.616Z,1.33
2023-04-24T13:37:13.694Z,1.80
2023-04-24T13:39:42.332Z,1.63
2023-04-24T13:42:10.503Z,1.50
2023-04-24T13:44:38.554Z,1.60
2023-04-24T13:47:06.699Z,1.50
2023-04-24T13:49:36.186Z,1.40
2023-04-24T13:52:04.340Z,1.60
2023-04-24T13:54:32.141Z,1.53
2023-04-24T13:57:01.560Z,1.53
2023-04-24T13:59:29.497Z,2.27
2023-04-24T14:01:57.339Z,1.50
2023-04-24T14:04:25.339Z,2.30
2023-04-24T14:06:54.765Z,2.00
2023-04-24T14:09:22.615Z,1.30
2023-04-24T14:11:50.393Z,1.33
2023-04-24T14:14:18.279Z,1.30
2023-04-24T14:16:46.177Z,1.20
2023-04-24T14:19:13.917Z,1.67
2023-04-24T14:21:41.599Z,1.57
2023-04-24T14:24:10.986Z,1.80
2023-04-24T14:26:38.788Z,2.20
2023-04-24T14:29:14.191Z,1.53
2023-04-24T14:31:43.625Z,1.17
2023-04-24T14:34:11.621Z,1.57
2023-04-24T14:36:39.445Z,1.03
2023-04-24T14:39:08.220Z,1.53
2023-04-24T14:41:38.439Z,1.20
2023-04-24T14:44:06.555Z,1.30
2023-04-24T14:46:34.768Z,1.53
2023-04-24T14:49:02.733Z,1.37
2023-04-24T14:51:31.396Z,1.87
2023-04-24T14:53:59.248Z,1.90
2023-04-24T14:56:27.053Z,1.60
2023-04-24T14:58:56.964Z,1.70
2023-04-24T15:01:25.100Z,1.70
2023-04-24T15:03:53.580Z,2.03
2023-04-24T15:06:21.643Z,2.33
2023-04-24T15:08:50.838Z,1.93
2023-04-24T15:11:18.882Z,1.97
2023-04-24T15:13:47.448Z,2.70
2023-04-24T15:16:17.129Z,1.77
2023-04-24T15:18:44.937Z,1.90
2023-04-24T15:21:13.805Z,2.60
2023-04-24T15:23:42.024Z,2.40
2023-04-24T15:26:09.784Z,2.10
2023-04-24T15:28:37.528Z,1.83
2023-04-24T15:31:05.389Z,1.60
2023-04-24T15:33:34.649Z,2.00
2023-04-24T15:36:02.476Z,2.30
2023-04-24T15:38:30.268Z,1.97
2023-04-24T15:40:58.036Z,1.80
2023-04-24T15:43:25.898Z,2.20
2023-04-24T15:45:53.810Z,1.63
2023-04-24T15:48:21.852Z,1.60
2023-04-24T15:50:51.101Z,1.73
2023-04-24T15:53:22.464Z,2.00
2023-04-24T15:55:51.553Z,2.20
2023-04-24T15:58:20.957Z,1.90
2023-04-24T16:00:48.832Z,2.10
2023-04-24T16:03:16.784Z,2.00
2023-04-24T16:05:44.624Z,2.03
2023-04-24T16:08:14.303Z,1.93
2023-04-24T16:10:42.182Z,1.70
2023-04-24T16:13:10.038Z,1.80
2023-04-24T16:15:37.906Z,1.87
2023-04-24T16:18:06.117Z,2.10
2023-04-24T16:20:44.150Z,2.10
2023-04-24T16:23:14.835Z,2.10
2023-04-24T16:25:42.577Z,2.00
2023-04-24T16:28:10.410Z,1.97
2023-04-24T16:30:39.756Z,3.27
2023-04-24T16:33:09.177Z,2.87
2023-04-24T16:35:37.351Z,2.10
2023-04-24T16:38:16.418Z,2.10
2023-04-24T16:40:44.122Z,2.20
2023-04-24T16:43:11.855Z,2.37
2023-04-24T16:45:39.782Z,2.33
2023-04-24T16:48:07.810Z,1.70
2023-04-24T16:50:35.550Z,2.00
2023-04-24T16:53:03.478Z,1.77
2023-04-24T16:55:32.589Z,2.30
2023-04-24T16:58:00.268Z,2.40
2023-04-24T17:00:27.965Z,3.10
2023-04-24T17:02:55.827Z,2.90
2023-04-24T17:05:23.722Z,2.70
2023-04-24T17:07:52.136Z,2.20
2023-04-24T17:10:19.820Z,1.60
2023-04-24T17:12:48.979Z,1.37
2023-04-24T17:15:16.870Z,1.30
2023-04-24T17:17:46.191Z,1.50
2023-04-24T17:20:22.080Z,1.30
2023-04-24T17:22:51.905Z,1.43
2023-04-24T17:25:19.792Z,1.57
2023-04-24T17:27:48.928Z,1.80
2023-04-24T17:30:17.772Z,2.10
2023-04-24T17:32:45.916Z,2.70
2023-04-24T17:35:13.725Z,1.70
2023-04-24T17:37:41.737Z,1.50
2023-04-24T17:40:10.637Z,1.23
2023-04-24T17:42:41.406Z,1.63
2023-04-24T17:45:12.091Z,1.50
2023-04-24T17:47:42.741Z,1.77
2023-04-24T17:50:10.949Z,1.30
2023-04-24T17:52:38.669Z,1.63
2023-04-24T17:55:07.444Z,2.40
2023-04-24T17:57:38.016Z,2.20
2023-04-24T18:00:07.208Z,1.83
2023-04-24T18:02:37.333Z,1.40
2023-04-24T18:05:05.768Z,2.40
2023-04-24T18:07:34.103Z,1.90
2023-04-24T18:10:01.946Z,1.70
2023-04-24T18:12:29.697Z,1.57
2023-04-24T18:15:12.958Z,1.60
2023-04-24T18:17:43.233Z,2.60
2023-04-24T18:20:11.914Z,1.60
2023-04-24T18:22:39.766Z,1.83
2023-04-24T18:25:08.064Z,1.57
2023-04-24T18:27:36.039Z,2.50
2023-04-24T18:30:04.738Z,2.03
2023-04-24T18:32:32.843Z,2.10
2023-04-24T18:35:02.511Z,1.87
2023-04-24T18:37:32.900Z,2.50
2023-04-24T18:40:00.912Z,2.03
2023-04-24T18:42:29.360Z,2.30
2023-04-24T18:45:01.210Z,2.10
2023-04-24T18:47:29.221Z,1.93
2023-04-24T18:49:57.049Z,2.13
2023-04-24T18:52:26.315Z,1.80
2023-04-24T18:54:54.088Z,1.87
2023-04-24T18:57:21.835Z,2.37
2023-04-24T18:59:49.767Z,2.20
2023-04-24T19:02:17.641Z,2.30
2023-04-24T19:04:45.537Z,2.20
2023-04-24T19:07:13.226Z,2.23
2023-04-24T19:09:42.497Z,2.60
2023-04-24T19:12:10.381Z,1.70
2023-04-24T19:14:38.303Z,2.20
2023-04-24T19:17:06.334Z,2.20
2023-04-24T19:19:34.142Z,2.25
2023-04-24T19:22:02.138Z,2.10
2023-04-24T19:24:29.909Z,2.17
2023-04-24T19:26:59.050Z,2.00
2023-04-24T19:29:26.827Z,2.15
2023-04-24T19:31:55.625Z,2.92
2023-04-24T19:34:23.320Z,2.83
2023-04-24T19:36:51.103Z,2.90
2023-04-24T19:39:18.880Z,2.97
2023-04-24T19:41:46.582Z,2.45
2023-04-24T19:44:17.330Z,2.63
2023-04-24T19:46:45.222Z,2.33
2023-04-24T19:49:15.106Z,2.00
2023-04-24T19:51:42.919Z,2.45
2023-04-24T19:54:12.794Z,2.40
2023-04-24T19:56:40.600Z,1.67
2023-04-24T19:59:08.780Z,2.20
2023-04-24T20:01:39.676Z,2.25
2023-04-24T20:04:09.499Z,1.75
2023-04-24T20:06:37.495Z,1.55
2023-04-24T20:09:06.040Z,1.85
2023-04-24T20:11:34.660Z,1.90
2023-04-24T20:14:03.737Z,2.50
2023-04-24T20:16:31.869Z,2.00
2023-04-24T20:19:01.112Z,2.20
2023-04-24T20:21:29.502Z,2.47
2023-04-24T20:23:57.257Z,3.10
2023-04-24T20:26:25.129Z,1.85
2023-04-24T20:28:53.066Z,1.90
2023-04-24T20:31:21.295Z,2.67
2023-04-24T20:33:49.050Z,2.40
2023-04-24T20:36:18.197Z,2.50
2023-04-24T20:38:47.088Z,1.70
2023-04-24T20:41:16.107Z,2.22
2023-04-24T20:43:44.097Z,1.70
2023-04-24T20:46:12.356Z,2.08
2023-04-24T20:48:40.630Z,2.45
2023-04-24T20:51:08.573Z,2.13
2023-04-24T20:53:37.666Z,2.28
2023-04-24T20:56:05.680Z,2.30
2023-04-24T20:58:33.860Z,2.35
2023-04-24T21:01:01.729Z,2.15
2023-04-24T21:03:29.736Z,2.40
2023-04-24T21:05:57.844Z,2.10
2023-04-24T21:08:25.637Z,2.00
2023-04-24T21:10:54.817Z,2.53
2023-04-24T21:13:22.710Z,2.42
2023-04-24T21:15:50.916Z,2.08
2023-04-24T21:18:18.778Z,2.10
2023-04-24T21:20:46.844Z,2.30
2023-04-24T21:23:14.629Z,2.40
2023-04-24T21:25:42.649Z,3.08
2023-04-24T21:28:11.864Z,2.10
2023-04-24T21:30:39.801Z,2.50
2023-04-24T21:33:07.798Z,2.42
2023-04-24T21:35:35.978Z,2.50
2023-04-24T21:38:04.065Z,2.85
2023-04-24T21:40:32.243Z,2.72
2023-04-24T21:43:00.310Z,2.70
2023-04-24T21:45:29.679Z,2.70
2023-04-24T21:47:58.493Z,2.50
2023-04-24T21:50:26.564Z,2.78
2023-04-24T21:52:54.607Z,2.80
2023-04-24T21:55:22.615Z,2.63
2023-04-24T21:57:50.554Z,2.58
2023-04-24T22:00:18.629Z,2.78
2023-04-24T22:02:48.048Z,2.72
2023-04-24T22:05:17.877Z,2.55
2023-04-24T22:07:49.753Z,2.55
2023-04-24T22:10:18.742Z,2.30
2023-04-24T22:12:46.588Z,1.98
2023-04-24T22:15:14.431Z,2.67
2023-04-24T22:17:42.326Z,3.30
2023-04-24T22:20:12.196Z,2.30
2023-04-24T22:22:40.337Z,2.40
2023-04-24T22:25:08.879Z,2.78
2023-04-24T22:27:36.846Z,2.50
2023-04-24T22:30:05.340Z,2.50
2023-04-24T22:32:33.271Z,2.75
2023-04-24T22:35:01.151Z,2.40
2023-04-24T22:37:30.285Z,2.50
2023-04-24T22:39:59.863Z,2.90
2023-04-24T22:42:27.875Z,2.70
2023-04-24T22:44:55.781Z,2.40
2023-04-24T22:47:23.657Z,2.88
2023-04-24T22:49:53.780Z,2.97
2023-04-24T22:52:21.798Z,2.85
2023-04-24T22:54:50.988Z,2.70
2023-04-24T22:57:18.813Z,2.80
2023-04-24T22:59:46.598Z,2.60
2023-04-24T23:02:14.727Z,2.70
2023-04-24T23:04:42.542Z,2.55
2023-04-24T23:07:10.382Z,2.60
2023-04-24T23:09:38.234Z,2.30
2023-04-24T23:12:07.494Z,3.25
2023-04-24T23:14:35.357Z,2.60
2023-04-24T23:17:03.896Z,2.42
2023-04-24T23:19:31.662Z,2.97
2023-04-24T23:21:59.380Z,2.95
2023-04-24T23:24:27.051Z,2.60
2023-04-24T23:26:54.833Z,2.55
2023-04-24T23:29:26.155Z,2.50
2023-04-24T23:31:53.924Z,2.83
2023-04-24T23:34:21.743Z,2.60
2023-04-24T23:36:49.976Z,2.97
2023-04-24T23:39:17.661Z,2.35
2023-04-24T23:41:46.312Z,2.10
2023-04-24T23:44:14.196Z,2.38
2023-04-24T23:46:43.244Z,2.55
2023-04-24T23:49:11.055Z,2.55
2023-04-24T23:51:39.108Z,2.22
2023-04-24T23:54:06.911Z,2.78
2023-04-24T23:56:34.720Z,2.30
2023-04-24T23:59:02.435Z,2.13
